Albany, NY (12201)

2:32 PM EST on January 18, 2017 (GMT -0500)
Whitehall | | Change Station

Elev 226 ft 42.65 °N, 73.80 °W | Updated 4 seconds ago

Overcast
Overcast
39.0 °F
Feels Like 39 °F
N
0.0
Wind Variable Wind from North
Gusts 0.0 mph

Today
High -- | Low -- °F
--% Chance of Precip.
Yesterday
High -- | Low -- °F
Precip. -- in
Pressure 29.98 in
Visibility 1.0 miles
Clouds Mostly Cloudy 300 ft
Overcast 500 ft
Windchill 39 °F
Dew Point 39 °F
Humidity 99%
Rainfall 0.14 in
Snow Depth Not available.
7:20 AM 4:50 PM
Waning Gibbous, 61% visible
METAR KALB 181851Z 00000KT 1SM R01/P6000FT -DZ BR BKN003 OVC005 02/01 A2997 RMK AO2 SFC VIS 1 1/4 SLP152 VIS 1V1 1/2 P0000 T00220011
Pressure 29.98 in
Visibility 1.0 miles
Clouds Mostly Cloudy 300 ft
Overcast 500 ft
Windchill 39 °F
Dew Point 39 °F
Humidity 99%
Rainfall 0.14 in
Snow Depth Not available.
7:20 AM 4:50 PM
Waning Gibbous, 61% visible
METAR KALB 181851Z 00000KT 1SM R01/P6000FT -DZ BR BKN003 OVC005 02/01 A2997 RMK AO2 SFC VIS 1 1/4 SLP152 VIS 1V1 1/2 P0000 T00220011

Get Your Daily Forecast Email!

Thanks for signing up!

Be on the lookout for a verification email in your inbox.

You'll start receiving the daily forecast at 8 AM.

×

10-Day Weather Forecast

Almanac

Astronomy

Jan. 18, 2017 Rise Set
Actual Time
Civil Twilight
Nautical Twilight
Astronomical Twilight
Moon
Length of Visible Light
Length of Day
Tomorrow will be .
, % of the Moon is Illuminated

Today's Extremes

State Highs State Lows

Community

WunderPhotos

Upload Photos

1,962,540 photos uploaded!

WunderBlog® & News

Nearby

Air Quality

  Air Quality AQ Index Pollutant
Not available.

Snow Depth

Station Depth Elevation

Earthquake Activity

City Distance Mag. Time & Date
Minimum magnitude displayed is 2.5.

Coastal Water Temperatures

Place Temperature

Stations

Nearby Weather Stations

Station Location Temp. Windchill Dew Point Humidity Wind Precip. Elev Updated Type
                   

Watches & Warnings

There are currently no watches in effect.